Time;durP1;ratioP1;P1;durP2;ratioP2;P2;SDS_P1;SDS_P2;PMS_P1;PMS_P2;Temp;Humidity;BMP_temperature;BMP_pressure;BME280_temperature;BME280_humidity;BME280_pressure;Samples;Min_cycle;Max_cycle;Signal;HPM_P1;HPM_P2
2022/09/04 00:01:41;;;;;;;3.97;2.33;;;;;;;;;;5047199;28;20480;-54
2022/09/04 00:04:29;;;;;;;4.20;1.60;;;;;;;;;;5041692;28;20429;-56
2022/09/04 00:07:28;;;;;;;3.50;1.42;;;;;;;;;;5033791;28;20550;-56
2022/09/04 00:10:28;;;;;;;2.20;1.55;;;;;;;;;;5042769;28;20072;-56
2022/09/04 00:13:21;;;;;;;2.88;1.50;;;;;;;;;;5026930;28;20040;-55
2022/09/04 00:16:14;;;;;;;2.63;1.58;;;;;;;;;;5043523;28;20033;-54
2022/09/04 00:19:04;;;;;;;2.40;1.55;;;;;;;;;;5040761;28;20056;-53
2022/09/04 00:21:54;;;;;;;2.50;1.58;;;;;;;;;;5047316;28;20055;-57
2022/09/04 00:24:41;;;;;;;3.42;1.65;;;;;;;;;;5049695;28;20063;-56
2022/09/04 00:27:27;;;;;;;2.95;1.65;;;;;;;;;;5047464;28;20056;-52
2022/09/04 00:30:18;;;;;;;2.15;1.50;;;;;;;;;;5047899;28;20041;-56
2022/09/04 00:33:07;;;;;;;3.13;1.60;;;;;;;;;;5046883;28;20467;-55
2022/09/04 00:35:54;;;;;;;2.38;1.50;;;;;;;;;;5038925;28;20037;-53
2022/09/04 00:38:46;;;;;;;2.42;1.48;;;;;;;;;;5041676;28;20041;-53
2022/09/04 00:41:49;;;;;;;2.58;1.65;;;;;;;;;;5048708;28;20068;-55
2022/09/04 00:44:56;;;;;;;4.07;1.88;;;;;;;;;;5042022;28;20051;-57
2022/09/04 00:48:06;;;;;;;3.15;1.90;;;;;;;;;;5039468;28;20049;-55
2022/09/04 00:51:00;;;;;;;2.72;1.90;;;;;;;;;;5047540;28;20049;-56
2022/09/04 00:54:20;;;;;;;2.58;1.67;;;;;;;;;;5038113;28;20120;-55
2022/09/04 00:57:12;;;;;;;2.22;1.60;;;;;;;;;;5025172;28;20189;-56
2022/09/04 01:00:15;;;;;;;2.45;1.50;;;;;;;;;;5010316;28;20046;-54
2022/09/04 01:03:02;;;;;;;2.33;1.58;;;;;;;;;;4997357;28;20057;-55
2022/09/04 01:05:55;;;;;;;2.30;1.50;;;;;;;;;;5001658;28;20049;-54
2022/09/04 01:08:48;;;;;;;2.08;1.65;;;;;;;;;;5026691;28;20080;-56
2022/09/04 01:11:42;;;;;;;2.58;1.70;;;;;;;;;;5018325;28;20499;-56
2022/09/04 01:14:33;;;;;;;2.60;1.80;;;;;;;;;;5025226;28;20049;-58
2022/09/04 01:17:26;;;;;;;2.20;1.60;;;;;;;;;;5026155;28;20128;-57
2022/09/04 01:20:28;;;;;;;2.25;1.80;;;;;;;;;;5016207;28;20046;-57
2022/09/04 01:23:20;;;;;;;3.95;1.98;;;;;;;;;;5024222;28;20714;-58
2022/09/04 01:26:14;;;;;;;3.13;1.65;;;;;;;;;;5025918;28;20041;-54
2022/09/04 01:29:14;;;;;;;3.50;1.98;;;;;;;;;;5025654;28;20604;-52
2022/09/04 01:32:08;;;;;;;2.97;1.70;;;;;;;;;;5037134;28;20536;-55
2022/09/04 01:35:00;;;;;;;4.07;2.10;;;;;;;;;;5033753;28;20041;-55
2022/09/04 01:37:57;;;;;;;3.70;1.70;;;;;;;;;;5037210;28;20056;-56
2022/09/04 01:40:57;;;;;;;2.38;1.50;;;;;;;;;;5037297;28;20054;-56
2022/09/04 01:43:41;;;;;;;5.38;1.60;;;;;;;;;;5037944;28;20041;-55
2022/09/04 01:46:31;;;;;;;3.88;2.17;;;;;;;;;;5047962;28;20536;-53
2022/09/04 01:49:21;;;;;;;3.10;1.75;;;;;;;;;;5044255;28;20053;-54
2022/09/04 01:52:06;;;;;;;2.63;1.77;;;;;;;;;;5044042;28;20128;-55
2022/09/04 01:54:56;;;;;;;3.30;1.70;;;;;;;;;;5050987;28;20392;-53
2022/09/04 01:58:07;;;;;;;3.85;1.90;;;;;;;;;;5042654;28;20080;-56
2022/09/04 02:01:03;;;;;;;3.17;1.57;;;;;;;;;;5047866;28;20124;-51
2022/09/04 02:03:48;;;;;;;3.45;2.08;;;;;;;;;;5043434;28;20342;-55
2022/09/04 02:06:43;;;;;;;2.10;1.60;;;;;;;;;;5032510;28;20624;-53
2022/09/04 02:09:33;;;;;;;2.13;1.50;;;;;;;;;;5073929;28;20052;-54
2022/09/04 02:12:17;;;;;;;3.63;1.88;;;;;;;;;;5039105;28;20102;-55
2022/09/04 02:15:08;;;;;;;2.42;1.75;;;;;;;;;;5048575;28;20130;-55
2022/09/04 02:18:06;;;;;;;3.38;1.80;;;;;;;;;;5063129;28;20076;-55
2022/09/04 02:21:09;;;;;;;2.90;1.70;;;;;;;;;;5051160;28;20041;-54
2022/09/04 02:23:59;;;;;;;2.15;1.38;;;;;;;;;;5044317;28;20416;-55
2022/09/04 02:26:43;;;;;;;2.72;1.63;;;;;;;;;;5047321;28;20044;-54
2022/09/04 02:29:43;;;;;;;2.72;1.60;;;;;;;;;;5045421;28;20435;-55
2022/09/04 02:32:51;;;;;;;4.47;1.70;;;;;;;;;;5049144;28;20492;-56
2022/09/04 02:35:59;;;;;;;2.38;1.63;;;;;;;;;;5031514;28;20041;-57
2022/09/04 02:39:02;;;;;;;2.83;1.70;;;;;;;;;;5039008;28;20056;-53
2022/09/04 02:41:58;;;;;;;2.92;1.77;;;;;;;;;;5043779;28;20063;-52
2022/09/04 02:45:01;;;;;;;2.45;1.50;;;;;;;;;;5050462;28;20060;-54
2022/09/04 02:47:49;;;;;;;4.35;1.80;;;;;;;;;;5047758;28;20092;-55
2022/09/04 02:50:53;;;;;;;4.10;1.63;;;;;;;;;;5033774;28;20038;-56
2022/09/04 02:53:56;;;;;;;3.25;2.20;;;;;;;;;;5042876;28;20399;-56
2022/09/04 02:56:45;;;;;;;3.92;1.73;;;;;;;;;;5044472;28;20040;-57
2022/09/04 02:59:46;;;;;;;2.65;1.90;;;;;;;;;;5049908;28;20045;-56
2022/09/04 03:02:40;;;;;;;2.85;2.03;;;;;;;;;;5049388;28;20045;-51
2022/09/04 03:05:28;;;;;;;3.30;2.00;;;;;;;;;;5043250;28;20067;-56
2022/09/04 03:08:19;;;;;;;3.47;2.03;;;;;;;;;;5040113;28;20126;-56
2022/09/04 03:11:16;;;;;;;2.63;2.15;;;;;;;;;;5047319;28;20113;-54
2022/09/04 03:14:07;;;;;;;2.85;2.10;;;;;;;;;;5047489;28;20068;-55
2022/09/04 03:16:58;;;;;;;2.90;2.05;;;;;;;;;;5031504;28;20076;-54
2022/09/04 03:19:58;;;;;;;2.30;1.63;;;;;;;;;;5047636;28;20029;-55
2022/09/04 03:22:53;;;;;;;3.10;2.42;;;;;;;;;;5042969;28;20116;-56
2022/09/04 03:26:10;;;;;;;4.32;2.05;;;;;;;;;;5049553;28;20046;-55
2022/09/04 03:28:54;;;;;;;4.15;2.00;;;;;;;;;;5052041;28;20550;-53
2022/09/04 03:31:39;;;;;;;3.95;1.92;;;;;;;;;;5046423;28;20396;-55
2022/09/04 03:34:35;;;;;;;3.38;2.33;;;;;;;;;;5049354;28;20041;-55
2022/09/04 03:37:26;;;;;;;4.75;2.13;;;;;;;;;;5046101;28;20083;-55
2022/09/04 03:40:10;;;;;;;3.58;2.05;;;;;;;;;;5042861;28;20045;-54
2022/09/04 03:43:13;;;;;;;4.65;2.50;;;;;;;;;;5050541;28;20045;-56
2022/09/04 03:46:04;;;;;;;2.90;2.20;;;;;;;;;;5048507;28;20045;-53
2022/09/04 03:48:48;;;;;;;3.20;2.40;;;;;;;;;;5043116;28;20140;-54
2022/09/04 03:51:38;;;;;;;4.22;1.80;;;;;;;;;;5048215;28;20288;-54
2022/09/04 03:54:31;;;;;;;3.88;2.50;;;;;;;;;;5046210;28;20038;-55
2022/09/04 03:57:27;;;;;;;3.35;2.00;;;;;;;;;;5047848;28;20067;-57
2022/09/04 04:00:18;;;;;;;3.92;2.30;;;;;;;;;;5039725;28;20038;-54
2022/09/04 04:03:22;;;;;;;7.05;2.78;;;;;;;;;;5044510;28;20036;-54
2022/09/04 04:06:31;;;;;;;3.78;2.28;;;;;;;;;;5046169;28;20041;-56
2022/09/04 04:09:17;;;;;;;3.30;1.95;;;;;;;;;;5045476;28;20055;-56
2022/09/04 04:12:25;;;;;;;4.88;2.40;;;;;;;;;;5049078;28;20048;-54
2022/09/04 04:15:26;;;;;;;7.40;2.42;;;;;;;;;;5046738;28;20170;-56
2022/09/04 04:18:20;;;;;;;6.07;2.03;;;;;;;;;;5029814;28;20480;-51
2022/09/04 04:21:04;;;;;;;3.38;2.40;;;;;;;;;;5048173;28;20040;-54
2022/09/04 04:23:55;;;;;;;6.65;2.25;;;;;;;;;;5043237;28;20753;-55
2022/09/04 04:26:39;;;;;;;4.93;2.15;;;;;;;;;;5048794;28;20105;-54
2022/09/04 04:29:27;;;;;;;3.28;2.20;;;;;;;;;;5047322;28;20056;-55
2022/09/04 04:32:24;;;;;;;4.38;2.67;;;;;;;;;;5044213;28;20040;-54
2022/09/04 04:35:18;;;;;;;5.75;2.65;;;;;;;;;;5038338;28;20211;-52
2022/09/04 04:38:11;;;;;;;3.95;2.40;;;;;;;;;;5045862;28;20445;-56
2022/09/04 04:41:02;;;;;;;4.85;2.67;;;;;;;;;;5046199;28;20025;-54
2022/09/04 04:43:46;;;;;;;4.97;2.63;;;;;;;;;;5043048;28;20540;-55
2022/09/04 04:46:46;;;;;;;3.17;2.10;;;;;;;;;;5044346;28;20049;-53
2022/09/04 04:49:50;;;;;;;5.05;2.17;;;;;;;;;;5045329;28;20048;-52
2022/09/04 04:52:44;;;;;;;2.85;2.22;;;;;;;;;;5042643;28;20052;-54
2022/09/04 04:55:38;;;;;;;5.50;2.92;;;;;;;;;;5055038;28;20041;-55
2022/09/04 04:58:26;;;;;;;5.25;2.70;;;;;;;;;;5034642;28;20061;-54
2022/09/04 05:01:30;;;;;;;4.70;3.30;;;;;;;;;;5040216;28;20487;-53
2022/09/04 05:04:35;;;;;;;5.10;2.55;;;;;;;;;;5038962;28;20073;-55
2022/09/04 05:07:36;;;;;;;4.47;2.85;;;;;;;;;;5041608;28;20216;-55
2022/09/04 05:10:34;;;;;;;6.50;3.50;;;;;;;;;;5047588;28;20484;-55
2022/09/04 05:13:36;;;;;;;4.82;2.40;;;;;;;;;;5046011;28;20477;-61
2022/09/04 05:16:30;;;;;;;3.88;2.70;;;;;;;;;;5032650;28;20137;-64
2022/09/04 05:19:21;;;;;;;4.50;2.55;;;;;;;;;;5051586;28;20063;-62
2022/09/04 05:22:12;;;;;;;7.78;4.28;;;;;;;;;;5044428;28;20045;-60
2022/09/04 05:25:04;;;;;;;9.55;3.63;;;;;;;;;;5066163;28;20071;-63
2022/09/04 05:27:48;;;;;;;5.85;2.60;;;;;;;;;;5045714;28;20037;-62
2022/09/04 05:30:39;;;;;;;4.95;2.20;;;;;;;;;;5064774;28;20052;-62
2022/09/04 05:33:32;;;;;;;5.72;2.72;;;;;;;;;;5062578;28;20083;-62
2022/09/04 05:36:24;;;;;;;3.42;2.22;;;;;;;;;;5040607;28;20044;-61
2022/09/04 05:39:37;;;;;;;5.07;2.13;;;;;;;;;;5062722;28;20041;-63
2022/09/04 05:42:38;;;;;;;3.75;2.28;;;;;;;;;;5008643;28;20046;-63
2022/09/04 05:45:27;;;;;;;3.90;2.38;;;;;;;;;;5009573;28;20041;-62
2022/09/04 05:48:21;;;;;;;3.60;2.13;;;;;;;;;;4995697;28;20065;-64
2022/09/04 05:51:12;;;;;;;13.27;4.32;;;;;;;;;;4990227;28;20049;-61
2022/09/04 05:54:15;;;;;;;6.72;3.75;;;;;;;;;;4994805;28;20473;-62
2022/09/04 05:57:03;;;;;;;4.45;2.80;;;;;;;;;;4995602;28;20064;-62
2022/09/04 06:00:06;;;;;;;11.45;3.85;;;;;;;;;;5009004;28;20054;-62
2022/09/04 06:03:09;;;;;;;7.22;2.67;;;;;;;;;;5009199;28;20422;-62
2022/09/04 06:05:57;;;;;;;25.05;3.88;;;;;;;;;;5006516;28;20129;-62
2022/09/04 06:08:42;;;;;;;5.78;2.53;;;;;;;;;;5007560;28;20089;-62
2022/09/04 06:11:39;;;;;;;5.63;2.60;;;;;;;;;;5008964;28;20045;-62
2022/09/04 06:14:42;;;;;;;4.53;2.75;;;;;;;;;;5009121;28;20041;-62
2022/09/04 06:17:48;;;;;;;3.75;2.15;;;;;;;;;;4995517;28;20121;-59
2022/09/04 06:20:51;;;;;;;3.45;2.30;;;;;;;;;;5043399;28;20078;-62
2022/09/04 06:23:55;;;;;;;4.57;2.45;;;;;;;;;;5045211;28;20049;-62
2022/09/04 06:26:39;;;;;;;4.13;2.20;;;;;;;;;;5033494;28;20037;-62
2022/09/04 06:29:47;;;;;;;4.38;2.65;;;;;;;;;;5042822;28;20093;-62
2022/09/04 06:32:42;;;;;;;4.53;2.55;;;;;;;;;;5038842;28;20542;-61
2022/09/04 06:35:32;;;;;;;4.93;2.63;;;;;;;;;;5039700;28;20090;-61
2022/09/04 06:38:34;;;;;;;5.00;2.85;;;;;;;;;;5034797;28;20045;-62
2022/09/04 06:41:40;;;;;;;4.43;3.28;;;;;;;;;;5057724;28;20042;-62
2022/09/04 06:44:38;;;;;;;4.00;2.55;;;;;;;;;;5044241;28;20039;-63
2022/09/04 06:47:41;;;;;;;8.98;4.32;;;;;;;;;;5043073;28;20053;-64
2022/09/04 06:50:44;;;;;;;4.55;2.90;;;;;;;;;;5050592;28;20061;-63
2022/09/04 06:53:41;;;;;;;5.43;3.10;;;;;;;;;;5031345;28;20111;-62
2022/09/04 06:56:28;;;;;;;6.20;3.83;;;;;;;;;;5049776;28;20378;-60
2022/09/04 06:59:22;;;;;;;7.53;4.97;;;;;;;;;;5040307;28;20053;-65
2022/09/04 07:02:25;;;;;;;4.10;2.80;;;;;;;;;;5041526;28;20040;-61
2022/09/04 07:05:23;;;;;;;7.00;4.47;;;;;;;;;;5046445;28;20060;-66
2022/09/04 07:08:08;;;;;;;6.38;3.90;;;;;;;;;;5042464;28;20071;-63
2022/09/04 07:10:52;;;;;;;5.70;3.08;;;;;;;;;;5045479;28;20423;-63
2022/09/04 07:13:55;;;;;;;4.03;3.38;;;;;;;;;;5047760;28;20120;-63
2022/09/04 07:16:40;;;;;;;5.30;3.20;;;;;;;;;;5047848;28;20099;-64
2022/09/04 07:19:43;;;;;;;4.32;3.00;;;;;;;;;;5039027;28;20061;-63
2022/09/04 07:22:46;;;;;;;8.88;3.92;;;;;;;;;;5049443;28;20044;-63
2022/09/04 07:25:48;;;;;;;5.80;3.13;;;;;;;;;;5053456;28;20044;-62
2022/09/04 07:28:53;;;;;;;5.22;2.72;;;;;;;;;;5035555;28;20468;-62
2022/09/04 07:31:40;;;;;;;4.97;2.70;;;;;;;;;;5031656;28;20076;-63
2022/09/04 07:34:30;;;;;;;5.75;2.80;;;;;;;;;;5046683;28;20111;-63
2022/09/04 07:37:38;;;;;;;6.75;2.72;;;;;;;;;;5037029;28;20075;-64
2022/09/04 07:40:28;;;;;;;4.78;2.38;;;;;;;;;;5011373;28;20728;-62
2022/09/04 07:43:22;;;;;;;3.40;2.47;;;;;;;;;;5022573;28;20042;-63
2022/09/04 07:46:16;;;;;;;7.25;2.85;;;;;;;;;;5036753;28;20053;-62
2022/09/04 07:49:03;;;;;;;4.32;2.47;;;;;;;;;;5018007;28;20071;-62
2022/09/04 07:51:52;;;;;;;6.00;3.33;;;;;;;;;;5025017;28;20509;-62
2022/09/04 07:54:56;;;;;;;7.05;2.90;;;;;;;;;;5012892;28;20489;-62
2022/09/04 07:58:01;;;;;;;3.08;2.13;;;;;;;;;;5018523;28;20088;-64
2022/09/04 08:00:55;;;;;;;6.00;3.25;;;;;;;;;;5023344;28;20048;-62
2022/09/04 08:03:58;;;;;;;4.25;2.50;;;;;;;;;;5020873;28;20052;-63
2022/09/04 08:06:48;;;;;;;5.70;2.88;;;;;;;;;;5012640;28;20075;-62
2022/09/04 08:09:48;;;;;;;3.88;2.55;;;;;;;;;;5027326;28;20088;-63
2022/09/04 08:12:32;;;;;;;3.72;2.50;;;;;;;;;;5027485;28;20037;-63
2022/09/04 08:15:21;;;;;;;6.25;2.67;;;;;;;;;;5020614;28;20046;-63
2022/09/04 08:18:14;;;;;;;3.95;2.10;;;;;;;;;;5067629;28;20591;-62
2022/09/04 08:21:14;;;;;;;3.17;2.10;;;;;;;;;;5041655;28;20407;-63
2022/09/04 08:24:00;;;;;;;3.13;2.40;;;;;;;;;;5043001;28;20053;-64
2022/09/04 08:27:03;;;;;;;3.50;2.10;;;;;;;;;;5025206;28;20053;-63
2022/09/04 08:30:04;;;;;;;6.55;2.67;;;;;;;;;;5035409;28;20820;-64
2022/09/04 08:33:00;;;;;;;2.63;2.35;;;;;;;;;;5045011;28;20120;-61
2022/09/04 08:35:54;;;;;;;4.93;3.20;;;;;;;;;;5040637;28;20095;-62
2022/09/04 08:38:44;;;;;;;4.68;2.60;;;;;;;;;;5048450;28;20435;-64
2022/09/04 08:41:55;;;;;;;6.13;2.75;;;;;;;;;;5039852;28;20759;-63
2022/09/04 08:44:58;;;;;;;4.53;2.58;;;;;;;;;;5044840;28;20120;-63
2022/09/04 08:47:50;;;;;;;4.63;2.67;;;;;;;;;;5042300;28;20048;-63
2022/09/04 08:50:50;;;;;;;7.18;3.25;;;;;;;;;;5046836;28;20040;-63
2022/09/04 08:53:53;;;;;;;7.03;3.78;;;;;;;;;;5061422;28;20039;-63
2022/09/04 08:56:46;;;;;;;2.53;1.88;;;;;;;;;;5053766;28;20119;-61
2022/09/04 08:59:49;;;;;;;4.82;2.35;;;;;;;;;;5053958;28;20041;-64
2022/09/04 09:02:52;;;;;;;5.00;2.28;;;;;;;;;;5055327;28;20045;-64
2022/09/04 09:05:42;;;;;;;3.50;2.47;;;;;;;;;;5051412;28;21243;-63
2022/09/04 09:08:33;;;;;;;2.85;1.90;;;;;;;;;;5055434;28;20086;-64
2022/09/04 09:11:30;;;;;;;3.03;2.45;;;;;;;;;;5040622;28;20448;-63
2022/09/04 09:14:26;;;;;;;4.45;2.28;;;;;;;;;;5052269;28;20140;-55
2022/09/04 09:17:12;;;;;;;4.03;2.60;;;;;;;;;;5050972;28;20075;-54
2022/09/04 09:19:58;;;;;;;3.22;2.47;;;;;;;;;;5058188;28;20037;-50
2022/09/04 09:23:02;;;;;;;18.92;12.90;;;;;;;;;;5041835;28;20053;-54
2022/09/04 09:26:05;;;;;;;133.07;57.75;;;;;;;;;;5052703;28;20039;-55
2022/09/04 09:28:49;;;;;;;221.05;92.13;;;;;;;;;;5048806;28;20036;-52
2022/09/04 09:31:42;;;;;;;34.05;16.60;;;;;;;;;;5046863;28;20029;-57
2022/09/04 09:34:26;;;;;;;52.53;25.25;;;;;;;;;;5055018;28;20112;-57
2022/09/04 09:37:20;;;;;;;25.65;11.88;;;;;;;;;;5053832;28;20530;-57
2022/09/04 09:40:22;;;;;;;58.05;24.98;;;;;;;;;;5052502;28;20064;-51
2022/09/04 09:43:13;;;;;;;16.52;8.23;;;;;;;;;;5033502;28;20069;-70
2022/09/04 09:46:15;;;;;;;10.47;6.30;;;;;;;;;;5037803;28;20049;-63
2022/09/04 09:49:02;;;;;;;20.30;13.13;;;;;;;;;;5052194;28;20283;-66
2022/09/04 09:51:58;;;;;;;7.10;5.05;;;;;;;;;;5049481;28;20060;-63
2022/09/04 09:54:42;;;;;;;19.90;10.43;;;;;;;;;;5043961;28;20120;-64
2022/09/04 09:57:27;;;;;;;14.35;9.20;;;;;;;;;;5050156;28;20393;-67
2022/09/04 10:00:13;;;;;;;5.03;3.85;;;;;;;;;;5048931;28;20041;-61
2022/09/04 10:03:17;;;;;;;10.82;5.95;;;;;;;;;;5043493;28;20182;-64
2022/09/04 10:06:10;;;;;;;8.02;4.85;;;;;;;;;;5041691;28;20043;-60
2022/09/04 10:09:00;;;;;;;9.50;5.60;;;;;;;;;;5048328;28;20115;-59
2022/09/04 10:12:14;;;;;;;6.20;3.72;;;;;;;;;;5041540;28;20029;-59
2022/09/04 10:15:17;;;;;;;3.85;2.75;;;;;;;;;;5032854;28;20459;-60
2022/09/04 10:18:21;;;;;;;3.53;2.70;;;;;;;;;;5009492;28;20807;-59
2022/09/04 10:21:24;;;;;;;3.88;3.03;;;;;;;;;;5030632;28;20509;-57
2022/09/04 10:24:27;;;;;;;4.55;2.60;;;;;;;;;;5032517;28;20061;-59
2022/09/04 10:27:29;;;;;;;3.83;2.60;;;;;;;;;;5018185;28;20052;-58
2022/09/04 10:30:14;;;;;;;3.60;2.63;;;;;;;;;;5035560;28;20049;-56
2022/09/04 10:33:10;;;;;;;3.45;2.40;;;;;;;;;;5043957;28;20144;-59
2022/09/04 10:35:58;;;;;;;4.80;2.65;;;;;;;;;;5020737;28;20064;-57
2022/09/04 10:42:04;;;;;;;3.85;2.20;;;;;;;;;;5033721;28;20088;-59
2022/09/04 10:44:51;;;;;;;3.58;2.17;;;;;;;;;;5040916;28;20050;-61
2022/09/04 10:47:36;;;;;;;2.92;2.33;;;;;;;;;;5019561;28;20054;-61
2022/09/04 10:50:23;;;;;;;4.03;2.40;;;;;;;;;;5029902;28;21699;-61
2022/09/04 10:53:11;;;;;;;3.63;2.58;;;;;;;;;;5055677;28;20045;-61
2022/09/04 10:56:15;;;;;;;4.93;2.45;;;;;;;;;;5035354;28;20444;-59
2022/09/04 10:59:19;;;;;;;4.28;2.67;;;;;;;;;;5043478;28;20041;-60
2022/09/04 11:02:13;;;;;;;3.80;2.90;;;;;;;;;;5044648;28;20036;-63
2022/09/04 11:05:14;;;;;;;10.85;6.00;;;;;;;;;;5042095;28;20112;-62
2022/09/04 11:08:17;;;;;;;4.40;3.40;;;;;;;;;;5044642;28;20045;-63
2022/09/04 11:11:20;;;;;;;4.25;2.53;;;;;;;;;;5037177;28;20080;-60
2022/09/04 11:14:15;;;;;;;5.10;2.60;;;;;;;;;;5042687;28;20120;-61
2022/09/04 11:17:15;;;;;;;5.35;2.83;;;;;;;;;;5039147;28;20049;-60
2022/09/04 11:20:19;;;;;;;8.80;4.90;;;;;;;;;;5040637;28;20065;-59
2022/09/04 11:23:25;;;;;;;4.80;3.47;;;;;;;;;;5041564;28;20612;-58
2022/09/04 11:26:32;;;;;;;3.67;2.88;;;;;;;;;;5041478;28;20037;-61
2022/09/04 11:29:30;;;;;;;4.03;2.97;;;;;;;;;;5043811;28;20049;-60
2022/09/04 11:32:24;;;;;;;4.05;3.10;;;;;;;;;;5042624;28;20392;-59
2022/09/04 11:35:23;;;;;;;3.92;2.30;;;;;;;;;;5044526;28;20822;-61
2022/09/04 11:38:08;;;;;;;4.43;2.60;;;;;;;;;;5037560;28;20112;-63
2022/09/04 11:40:55;;;;;;;4.45;2.40;;;;;;;;;;5044150;28;20499;-59
2022/09/04 11:43:58;;;;;;;4.20;3.40;;;;;;;;;;5042023;28;20037;-60
2022/09/04 11:47:00;;;;;;;3.55;3.03;;;;;;;;;;5038684;28;20120;-59
2022/09/04 11:49:52;;;;;;;3.80;3.13;;;;;;;;;;5068702;28;20075;-58
2022/09/04 11:52:45;;;;;;;4.07;3.05;;;;;;;;;;5040481;28;20033;-58
2022/09/04 11:55:48;;;;;;;4.55;2.95;;;;;;;;;;5035533;28;20043;-59
2022/09/04 11:58:44;;;;;;;4.03;2.80;;;;;;;;;;5041450;28;20037;-59
2022/09/04 12:01:32;;;;;;;4.97;3.20;;;;;;;;;;5054047;28;20080;-60
2022/09/04 12:04:21;;;;;;;4.07;3.30;;;;;;;;;;5038273;28;20136;-58
2022/09/04 12:07:42;;;;;;;4.45;3.17;;;;;;;;;;5041446;28;20079;-58
2022/09/04 12:10:41;;;;;;;3.83;3.20;;;;;;;;;;5017719;28;20112;-59
2022/09/04 12:13:32;;;;;;;3.53;3.00;;;;;;;;;;5021458;28;20495;-60
2022/09/04 12:16:31;;;;;;;4.23;2.80;;;;;;;;;;5013034;28;20056;-59
2022/09/04 12:19:20;;;;;;;3.70;3.03;;;;;;;;;;5035288;28;20053;-59
2022/09/04 12:22:25;;;;;;;5.95;3.10;;;;;;;;;;5019087;28;20041;-61
2022/09/04 12:25:14;;;;;;;4.78;3.13;;;;;;;;;;5027706;28;20247;-60
2022/09/04 12:28:02;;;;;;;3.53;2.47;;;;;;;;;;5035579;28;20041;-59
2022/09/04 12:30:52;;;;;;;4.43;3.03;;;;;;;;;;5003002;28;20421;-59
2022/09/04 12:33:45;;;;;;;5.63;2.60;;;;;;;;;;5024976;28;20195;-59
2022/09/04 12:36:35;;;;;;;5.05;3.05;;;;;;;;;;5011961;28;20500;-60
2022/09/04 12:39:19;;;;;;;3.00;2.38;;;;;;;;;;5029578;28;20041;-59
2022/09/04 12:42:21;;;;;;;3.42;2.63;;;;;;;;;;5016637;28;20029;-60
2022/09/04 12:45:24;;;;;;;3.47;2.58;;;;;;;;;;5036119;28;20543;-60
2022/09/04 12:48:32;;;;;;;4.68;2.40;;;;;;;;;;5041210;28;20035;-60
2022/09/04 12:51:20;;;;;;;4.80;2.90;;;;;;;;;;5039960;28;20037;-60
2022/09/04 12:54:23;;;;;;;3.47;2.58;;;;;;;;;;5034156;28;20067;-59
2022/09/04 12:57:26;;;;;;;3.55;2.78;;;;;;;;;;5067413;28;20052;-59
2022/09/04 13:00:13;;;;;;;2.92;1.95;;;;;;;;;;5042006;28;20069;-60
2022/09/04 13:03:16;;;;;;;3.53;2.60;;;;;;;;;;5034985;28;20039;-59
2022/09/04 13:06:07;;;;;;;3.92;2.78;;;;;;;;;;5040833;28;20120;-59
2022/09/04 13:09:17;;;;;;;3.70;2.40;;;;;;;;;;5041982;28;20064;-59
2022/09/04 13:12:19;;;;;;;2.92;2.20;;;;;;;;;;5027897;28;20052;-60
2022/09/04 13:15:10;;;;;;;3.83;2.45;;;;;;;;;;5027746;28;20046;-61
2022/09/04 13:18:13;;;;;;;2.35;2.05;;;;;;;;;;5024935;28;21009;-60
2022/09/04 13:21:09;;;;;;;3.17;2.33;;;;;;;;;;5026981;28;20061;-59
2022/09/04 13:24:00;;;;;;;3.05;2.00;;;;;;;;;;5015582;28;20073;-59
2022/09/04 13:26:56;;;;;;;3.08;1.90;;;;;;;;;;5024332;28;20037;-59
2022/09/04 13:29:43;;;;;;;3.00;2.35;;;;;;;;;;5025678;28;20124;-60
2022/09/04 13:32:50;;;;;;;3.30;2.30;;;;;;;;;;5024683;28;20496;-59
2022/09/04 13:35:54;;;;;;;3.42;2.42;;;;;;;;;;5017970;28;20073;-58
2022/09/04 13:38:38;;;;;;;3.63;2.20;;;;;;;;;;5016449;28;20068;-59
2022/09/04 13:41:36;;;;;;;2.85;1.80;;;;;;;;;;5028189;28;20037;-58
2022/09/04 13:44:20;;;;;;;2.75;1.77;;;;;;;;;;5030274;28;20053;-59
2022/09/04 13:47:10;;;;;;;3.33;2.30;;;;;;;;;;5023132;28;20541;-59
2022/09/04 13:50:08;;;;;;;3.90;1.92;;;;;;;;;;5061801;28;20060;-60
2022/09/04 13:52:56;;;;;;;3.38;2.30;;;;;;;;;;5034821;28;20448;-60
2022/09/04 13:55:45;;;;;;;2.92;2.10;;;;;;;;;;5045699;28;20424;-59
2022/09/04 13:58:37;;;;;;;2.28;1.85;;;;;;;;;;5036157;28;20053;-60
2022/09/04 14:01:24;;;;;;;3.13;1.95;;;;;;;;;;5045481;28;20044;-59
2022/09/04 14:04:10;;;;;;;3.45;1.88;;;;;;;;;;5035785;28;20082;-60
2022/09/04 14:07:01;;;;;;;4.50;2.83;;;;;;;;;;5033482;28;20110;-60
2022/09/04 14:09:45;;;;;;;;;;;;;;;;;;5044507;28;20079;-58
2022/09/04 14:12:34;;;;;;;3.67;2.60;;;;;;;;;;5033450;28;19923;-60
2022/09/04 14:15:32;;;;;;;5.82;2.63;;;;;;;;;;5046350;28;20049;-60
2022/09/04 14:18:35;;;;;;;3.85;2.40;;;;;;;;;;5044431;28;20052;-60
2022/09/04 14:21:19;;;;;;;2.95;2.50;;;;;;;;;;5038223;28;20048;-60
2022/09/04 14:24:19;;;;;;;7.03;2.17;;;;;;;;;;5045628;28;20044;-60
2022/09/04 14:27:07;;;;;;;3.13;2.17;;;;;;;;;;5051130;28;20464;-60
2022/09/04 14:30:09;;;;;;;3.80;2.58;;;;;;;;;;5038398;28;20528;-59
2022/09/04 14:32:56;;;;;;;4.40;2.70;;;;;;;;;;5053073;28;20106;-59
2022/09/04 14:35:49;;;;;;;4.97;3.05;;;;;;;;;;5049808;28;20201;-60
2022/09/04 14:38:40;;;;;;;3.20;2.90;;;;;;;;;;5045318;28;20453;-60
2022/09/04 14:41:37;;;;;;;3.72;2.95;;;;;;;;;;5050909;28;20064;-60
2022/09/04 14:44:42;;;;;;;3.22;2.90;;;;;;;;;;5032403;28;20045;-60
2022/09/04 14:47:30;;;;;;;4.05;2.85;;;;;;;;;;5046265;28;20057;-59
2022/09/04 14:50:15;;;;;;;2.90;2.50;;;;;;;;;;5031644;28;20048;-59
2022/09/04 14:53:02;;;;;;;5.20;2.97;;;;;;;;;;5039381;28;20045;-59
2022/09/04 14:56:05;;;;;;;3.83;2.60;;;;;;;;;;5038327;28;20081;-59
2022/09/04 14:59:13;;;;;;;5.45;3.20;;;;;;;;;;5050426;28;20043;-61
2022/09/04 15:02:07;;;;;;;3.78;2.80;;;;;;;;;;5030540;28;20049;-60
2022/09/04 15:04:51;;;;;;;4.15;2.75;;;;;;;;;;5034207;28;20178;-59
2022/09/04 15:07:42;;;;;;;5.25;3.20;;;;;;;;;;5037550;28;20038;-58
2022/09/04 15:10:27;;;;;;;3.10;2.53;;;;;;;;;;5056403;28;20361;-58
2022/09/04 15:13:27;;;;;;;4.78;2.90;;;;;;;;;;5044211;28;20049;-59
2022/09/04 15:16:22;;;;;;;3.55;2.50;;;;;;;;;;5038172;28;20029;-58
2022/09/04 15:19:25;;;;;;;3.53;2.60;;;;;;;;;;5038486;28;20113;-58
2022/09/04 15:22:24;;;;;;;5.00;3.03;;;;;;;;;;5034427;28;20175;-59
2022/09/04 15:25:16;;;;;;;3.90;3.03;;;;;;;;;;5034983;28;20053;-59
2022/09/04 15:28:06;;;;;;;4.95;3.00;;;;;;;;;;5045341;28;20041;-59
2022/09/04 15:31:01;;;;;;;3.45;2.45;;;;;;;;;;5040283;28;20032;-59
2022/09/04 15:33:47;;;;;;;5.20;2.70;;;;;;;;;;5043294;28;20056;-58
2022/09/04 15:36:31;;;;;;;4.03;3.08;;;;;;;;;;5037053;28;20043;-60
2022/09/04 15:39:28;;;;;;;3.28;2.95;;;;;;;;;;5032715;28;20497;-59
2022/09/04 15:42:29;;;;;;;3.60;2.20;;;;;;;;;;5034415;28;20037;-60
2022/09/04 15:45:22;;;;;;;6.00;2.20;;;;;;;;;;5033857;28;20034;-60
2022/09/04 15:48:18;;;;;;;2.47;2.17;;;;;;;;;;5040320;28;20044;-59
2022/09/04 15:51:02;;;;;;;2.72;2.05;;;;;;;;;;5030713;28;20041;-59
2022/09/04 15:54:05;;;;;;;3.15;2.25;;;;;;;;;;5040853;28;20064;-59
2022/09/04 15:56:49;;;;;;;3.63;2.42;;;;;;;;;;5046087;28;20053;-59
2022/09/04 15:59:39;;;;;;;3.75;2.20;;;;;;;;;;5038758;28;20116;-58
2022/09/04 16:02:41;;;;;;;5.15;3.05;;;;;;;;;;5035855;28;20384;-60
2022/09/04 16:05:36;;;;;;;3.65;2.30;;;;;;;;;;5042424;28;20128;-59
2022/09/04 16:08:23;;;;;;;3.97;2.65;;;;;;;;;;5050211;28;21296;-59
2022/09/04 16:11:11;;;;;;;2.58;1.98;;;;;;;;;;5045581;28;20578;-59
2022/09/04 16:13:57;;;;;;;3.88;2.47;;;;;;;;;;5031918;28;20460;-59
2022/09/04 16:16:54;;;;;;;4.25;2.47;;;;;;;;;;5031462;28;20406;-59
2022/09/04 16:20:08;;;;;;;2.80;2.10;;;;;;;;;;5044272;28;20057;-60
2022/09/04 16:22:57;;;;;;;5.47;2.33;;;;;;;;;;5028240;28;20073;-58
2022/09/04 16:25:46;;;;;;;4.35;2.38;;;;;;;;;;5023071;28;20061;-59
2022/09/04 16:28:32;;;;;;;3.20;2.25;;;;;;;;;;5026807;28;20037;-60
2022/09/04 16:31:22;;;;;;;3.17;2.45;;;;;;;;;;5026081;28;20088;-60
2022/09/04 16:34:20;;;;;;;3.22;2.20;;;;;;;;;;5026030;28;20047;-59
2022/09/04 16:37:17;;;;;;;5.15;2.90;;;;;;;;;;5019624;28;20038;-59
2022/09/04 16:40:02;;;;;;;3.95;2.53;;;;;;;;;;5021827;28;20072;-59
2022/09/04 16:42:50;;;;;;;2.78;2.17;;;;;;;;;;5026266;28;20389;-60
2022/09/04 16:45:38;;;;;;;6.72;2.53;;;;;;;;;;5026006;28;20053;-60
2022/09/04 16:48:23;;;;;;;3.53;2.20;;;;;;;;;;5026328;28;20045;-63
2022/09/04 16:51:20;;;;;;;3.35;2.53;;;;;;;;;;5028330;28;20091;-60
2022/09/04 16:54:09;;;;;;;5.15;3.00;;;;;;;;;;5025707;28;20033;-60
2022/09/04 16:56:57;;;;;;;10.63;6.65;;;;;;;;;;5026843;28;20037;-60
2022/09/04 16:59:42;;;;;;;7.97;4.07;;;;;;;;;;5041087;28;20134;-61
2022/09/04 17:02:29;;;;;;;4.32;2.92;;;;;;;;;;5046749;28;20065;-60
2022/09/04 17:05:24;;;;;;;5.55;2.90;;;;;;;;;;5042859;28;20049;-61
2022/09/04 17:08:15;;;;;;;3.83;2.55;;;;;;;;;;5043165;28;20068;-61
2022/09/04 17:11:01;;;;;;;;;;;;;;;;;;5041503;28;20045;-61
2022/09/04 17:14:02;;;;;;;5.15;2.33;;;;;;;;;;5045160;28;19948;-59
2022/09/04 17:16:51;;;;;;;3.92;2.47;;;;;;;;;;5045130;28;20049;-58
2022/09/04 17:19:37;;;;;;;3.95;2.45;;;;;;;;;;5044644;28;20422;-61
2022/09/04 17:22:33;;;;;;;3.83;2.80;;;;;;;;;;5038243;28;20422;-60
2022/09/04 17:25:29;;;;;;;3.80;2.30;;;;;;;;;;5045565;28;20077;-60
2022/09/04 17:28:13;;;;;;;3.10;2.50;;;;;;;;;;5045581;28;20156;-60
2022/09/04 17:31:05;;;;;;;4.90;2.25;;;;;;;;;;5046767;28;20128;-60